Time;durP1;ratioP1;P1;durP2;ratioP2;P2;SDS_P1;SDS_P2;PMS_P1;PMS_P2;Temp;Humidity;BMP_temperature;BMP_pressure;BME280_temperature;BME280_humidity;BME280_pressure;Samples;Min_cycle;Max_cycle;Signal;HPM_P1;HPM_P2
2021/09/18 00:00:50;;;;;;;0.77;0.77;;;;;;;12.14;99.48;100564.19;4998770;28;20312;-75
2021/09/18 00:03:16;;;;;;;1.00;1.00;;;;;;;12.13;98.37;100567.69;4998961;28;20238;-76
2021/09/18 00:05:42;;;;;;;1.10;1.00;;;;;;;12.13;99.51;100565.09;4999129;28;20235;-76
2021/09/18 00:08:09;;;;;;;0.90;0.90;;;;;;;12.12;98.30;100566.84;4998505;28;20207;-76
2021/09/18 00:10:36;;;;;;;1.10;0.90;;;;;;;12.16;100.00;100562.38;5003151;28;20216;-76
2021/09/18 00:13:03;;;;;;;0.80;0.80;;;;;;;12.11;98.30;100566.91;5003050;28;20211;-77
2021/09/18 00:15:30;;;;;;;1.73;0.90;;;;;;;12.13;99.00;100565.09;5001594;28;20204;-77
2021/09/18 00:17:56;;;;;;;0.97;0.90;;;;;;;12.13;99.65;100565.09;5002883;28;20211;-76
2021/09/18 00:20:23;;;;;;;0.90;0.90;;;;;;;12.08;97.60;100569.59;5002763;28;20671;-75
2021/09/18 00:22:49;;;;;;;0.87;0.80;;;;;;;12.09;98.14;100564.34;4998368;28;20971;-76
2021/09/18 00:25:16;;;;;;;1.30;0.90;;;;;;;12.09;98.59;100564.34;5000243;28;20220;-76
2021/09/18 00:27:44;;;;;;;1.00;0.90;;;;;;;12.08;97.79;100577.44;5002305;28;20224;-76
2021/09/18 00:30:10;;;;;;;1.70;0.80;;;;;;;12.07;97.71;100581.81;5000270;28;20223;-76
2021/09/18 00:32:37;;;;;;;1.00;0.90;;;;;;;12.08;98.49;100580.06;4998763;28;20223;-76
2021/09/18 00:35:05;;;;;;;2.37;0.90;;;;;;;12.08;98.41;100580.94;4999668;28;20622;-75
2021/09/18 00:37:32;;;;;;;1.07;1.00;;;;;;;12.07;98.81;100573.16;5001573;28;20237;-76
2021/09/18 00:39:58;;;;;;;1.17;0.93;;;;;;;12.12;100.00;100571.22;5002943;28;20579;-76
2021/09/18 00:42:25;;;;;;;1.60;0.80;;;;;;;12.08;99.43;100567.88;5003975;28;20700;-76
2021/09/18 00:44:53;;;;;;;2.60;0.90;;;;;;;12.10;100.00;100573.91;5002480;28;20212;-76
2021/09/18 00:47:20;;;;;;;0.80;0.80;;;;;;;12.05;99.10;100572.34;5003928;28;20258;-76
2021/09/18 00:49:46;;;;;;;1.13;1.03;;;;;;;12.04;99.00;100571.47;4984798;28;20602;-76
2021/09/18 00:52:17;;;;;;;1.50;1.00;;;;;;;12.03;100.00;100571.50;5003956;28;20298;-76
2021/09/18 00:54:43;;;;;;;1.13;1.00;;;;;;;12.00;98.76;100577.72;5003042;28;20201;-76
2021/09/18 00:57:10;;;;;;;0.90;0.80;;;;;;;12.03;100.00;100575.00;5001353;28;20238;-76
2021/09/18 00:59:36;;;;;;;1.47;0.80;;;;;;;12.00;98.92;100580.31;5000318;28;20201;-76
2021/09/18 01:02:04;;;;;;;2.10;0.97;;;;;;;11.99;99.39;100576.00;4999044;28;20212;-75
2021/09/18 01:04:30;;;;;;;0.87;0.87;;;;;;;11.99;99.45;100570.75;4996582;28;20705;-76
2021/09/18 01:06:56;;;;;;;2.63;1.03;;;;;;;11.99;99.12;100582.97;5000254;28;20226;-76
2021/09/18 01:09:23;;;;;;;1.40;0.90;;;;;;;12.01;100.00;100571.56;4996391;28;20230;-75
2021/09/18 01:11:50;;;;;;;0.73;0.73;;;;;;;11.99;100.00;100573.38;5000385;28;20212;-75
2021/09/18 01:14:16;;;;;;;0.93;0.90;;;;;;;12.00;100.00;100567.25;5005572;28;20207;-76
2021/09/18 01:16:42;;;;;;;1.50;1.00;;;;;;;11.99;100.00;100568.16;5002012;28;20220;-76
2021/09/18 01:19:10;;;;;;;0.90;0.90;;;;;;;11.97;100.00;100571.72;5000946;28;20199;-75
2021/09/18 01:21:37;;;;;;;1.20;1.10;;;;;;;11.97;100.00;100579.56;5003015;28;20200;-76
2021/09/18 01:24:05;;;;;;;2.10;1.00;;;;;;;11.96;100.00;100575.22;4999818;28;21273;-76
2021/09/18 01:26:33;;;;;;;1.20;1.00;;;;;;;11.97;100.00;100584.78;5001775;28;20536;-77
2021/09/18 01:28:59;;;;;;;1.03;0.93;;;;;;;12.00;100.00;100576.88;4999918;28;20223;-76
2021/09/18 01:31:27;;;;;;;0.93;0.90;;;;;;;11.96;100.00;100576.13;5001376;28;20302;-76
2021/09/18 01:33:54;;;;;;;1.07;0.97;;;;;;;11.91;100.00;100580.63;5000856;28;20234;-76
2021/09/18 01:36:20;;;;;;;1.30;0.93;;;;;;;11.96;100.00;100575.22;4999744;28;20587;-76
2021/09/18 01:38:47;;;;;;;1.00;0.93;;;;;;;11.91;100.00;100572.78;4998678;28;20212;-75
2021/09/18 01:41:15;;;;;;;1.20;1.03;;;;;;;11.90;100.00;100577.13;5002704;28;20235;-75
2021/09/18 01:43:42;;;;;;;2.47;0.97;;;;;;;11.90;100.00;100574.53;5001371;28;20196;-75
2021/09/18 01:46:08;;;;;;;1.10;1.00;;;;;;;11.91;100.00;100575.41;5001101;28;20311;-75
2021/09/18 01:48:35;;;;;;;2.37;1.00;;;;;;;11.89;100.00;100578.03;4999691;28;20579;-76
2021/09/18 01:51:02;;;;;;;1.50;1.17;;;;;;;11.92;100.00;100584.94;4997164;28;20678;-76
2021/09/18 01:53:29;;;;;;;1.30;1.20;;;;;;;11.90;100.00;100576.25;4997190;28;20207;-76
2021/09/18 01:55:57;;;;;;;1.47;1.13;;;;;;;11.89;100.00;100578.03;4994349;28;20229;-76
2021/09/18 01:58:24;;;;;;;1.20;1.10;;;;;;;11.94;100.00;100575.28;4993396;28;20221;-76
2021/09/18 02:00:52;;;;;;;1.97;1.03;;;;;;;11.87;100.00;100577.22;4998607;28;20207;-76
2021/09/18 02:03:19;;;;;;;2.30;1.40;;;;;;;11.88;100.00;100567.63;5001320;28;20210;-76
2021/09/18 02:05:46;;;;;;;0.90;0.90;;;;;;;11.87;100.00;100572.00;4998346;28;20235;-76
2021/09/18 02:08:13;;;;;;;1.00;0.90;;;;;;;11.88;100.00;100565.84;4996591;28;20701;-76
2021/09/18 02:10:40;;;;;;;1.20;1.07;;;;;;;11.88;100.00;100568.47;5001548;28;20224;-76
2021/09/18 02:13:09;;;;;;;1.10;1.00;;;;;;;11.87;100.00;100568.50;5001966;28;20215;-76
2021/09/18 02:15:37;;;;;;;2.17;1.10;;;;;;;11.85;100.00;100563.34;4997344;28;20204;-76
2021/09/18 02:18:04;;;;;;;0.90;0.90;;;;;;;11.86;100.00;100570.28;4998133;28;20853;-76
2021/09/18 02:20:31;;;;;;;1.23;0.90;;;;;;;11.87;100.00;100556.34;5002692;28;20224;-76
2021/09/18 02:22:58;;;;;;;1.07;1.07;;;;;;;11.85;100.00;100562.50;4996005;28;20282;-77
2021/09/18 02:25:26;;;;;;;1.30;1.20;;;;;;;11.83;100.00;100556.47;5000291;28;20215;-76
2021/09/18 02:27:53;;;;;;;1.13;1.03;;;;;;;11.86;100.00;100566.81;4999207;28;20219;-75
2021/09/18 02:30:22;;;;;;;1.17;0.97;;;;;;;11.82;100.00;100558.22;5000444;28;20220;-75
2021/09/18 02:32:50;;;;;;;1.00;1.00;;;;;;;11.86;100.00;100564.22;4999844;28;20558;-75
2021/09/18 02:35:19;;;;;;;2.03;1.10;;;;;;;11.81;100.00;100564.34;4998638;28;20202;-75
2021/09/18 02:37:46;;;;;;;1.13;0.90;;;;;;;11.82;100.00;100563.47;4999748;28;20341;-76
2021/09/18 02:40:15;;;;;;;0.80;0.80;;;;;;;11.82;100.00;100562.59;4996338;28;20216;-75
2021/09/18 02:42:43;;;;;;;1.13;1.00;;;;;;;11.83;100.00;100553.84;5001045;28;20204;-75
2021/09/18 02:45:10;;;;;;;0.90;0.90;;;;;;;11.82;100.00;100559.97;4990984;28;20215;-76
2021/09/18 02:47:37;;;;;;;1.27;1.03;;;;;;;11.81;100.00;100563.50;5001381;28;20227;-76
2021/09/18 02:50:07;;;;;;;0.93;0.80;;;;;;;11.83;100.00;100557.31;4997871;28;20723;-75
2021/09/18 02:52:34;;;;;;;1.07;0.97;;;;;;;11.83;100.00;100559.94;4993575;28;20218;-76
2021/09/18 02:55:00;;;;;;;0.90;0.90;;;;;;;11.80;100.00;100556.56;4998106;28;20298;-75
2021/09/18 02:57:27;;;;;;;1.10;1.07;;;;;;;11.81;100.00;100558.28;5002736;28;20227;-75
2021/09/18 02:59:53;;;;;;;1.07;0.97;;;;;;;11.79;100.00;100550.50;5000842;28;20207;-76
2021/09/18 03:02:20;;;;;;;1.43;1.07;;;;;;;11.78;100.00;100550.53;4999664;28;20302;-76
2021/09/18 03:04:46;;;;;;;1.40;1.03;;;;;;;11.79;100.00;100552.25;4996731;28;20209;-76
2021/09/18 03:07:14;;;;;;;0.70;0.70;;;;;;;11.80;100.00;100562.63;5004344;28;20224;-76
2021/09/18 03:09:40;;;;;;;1.00;0.90;;;;;;;11.78;100.00;100554.00;5000503;28;20214;-76
2021/09/18 03:12:07;;;;;;;1.87;1.00;;;;;;;11.81;100.00;100550.44;4993296;28;20681;-76
2021/09/18 03:14:33;;;;;;;0.97;0.97;;;;;;;11.81;100.00;100545.22;4995643;28;20211;-76
2021/09/18 03:17:00;;;;;;;3.13;0.80;;;;;;;11.79;100.00;100540.03;5001209;28;20313;-75
2021/09/18 03:19:26;;;;;;;0.70;0.70;;;;;;;11.79;100.00;100545.25;5004819;28;20889;-76
2021/09/18 03:21:53;;;;;;;0.80;0.80;;;;;;;11.78;100.00;100535.72;5003054;28;20210;-75
2021/09/18 03:24:20;;;;;;;1.77;0.77;;;;;;;11.81;100.00;100534.78;5007140;28;20336;-75
2021/09/18 03:26:47;;;;;;;0.70;0.70;;;;;;;11.79;100.00;100536.59;5005769;28;20238;-75
2021/09/18 03:29:13;;;;;;;1.03;0.80;;;;;;;11.78;100.00;100534.88;5003952;28;20210;-76
2021/09/18 03:31:42;;;;;;;0.77;0.77;;;;;;;11.75;100.00;100541.91;5004345;28;20232;-75
2021/09/18 03:34:08;;;;;;;1.00;0.90;;;;;;;11.78;100.00;100540.09;5005733;28;20864;-75
2021/09/18 03:36:35;;;;;;;0.70;0.70;;;;;;;11.81;100.00;100534.78;5003561;28;20238;-76
2021/09/18 03:39:02;;;;;;;2.03;0.97;;;;;;;11.80;100.00;100536.50;5003467;28;20209;-76
2021/09/18 03:41:29;;;;;;;1.33;0.90;;;;;;;11.78;100.00;100540.09;5001535;28;20215;-76
2021/09/18 03:43:56;;;;;;;0.80;0.80;;;;;;;11.79;100.00;100542.66;5005987;28;20207;-75
2021/09/18 03:46:22;;;;;;;0.80;0.80;;;;;;;11.78;100.00;100540.94;5004274;28;20224;-75
2021/09/18 03:48:49;;;;;;;1.10;1.00;;;;;;;11.80;100.00;100543.50;4996187;28;20221;-75
2021/09/18 03:51:15;;;;;;;1.80;0.77;;;;;;;11.81;100.00;100542.59;5001573;28;20224;-76
2021/09/18 03:53:42;;;;;;;1.00;0.90;;;;;;;11.84;100.00;100547.75;5004727;28;20206;-76
2021/09/18 03:56:08;;;;;;;1.53;1.07;;;;;;;11.78;100.00;100551.38;5003349;28;20231;-76
2021/09/18 03:58:36;;;;;;;1.30;0.90;;;;;;;11.80;100.00;100544.34;5004059;28;20289;-75
2021/09/18 04:01:02;;;;;;;1.30;0.77;;;;;;;11.83;100.00;100548.63;4998480;28;20207;-76
2021/09/18 04:03:29;;;;;;;1.50;1.00;;;;;;;11.83;100.00;100552.09;5006155;28;20226;-75
2021/09/18 04:05:55;;;;;;;1.33;1.00;;;;;;;11.85;100.00;100550.28;5001256;28;20596;-75
2021/09/18 04:08:21;;;;;;;0.97;0.97;;;;;;;11.84;100.00;100545.97;5001689;28;20205;-76
2021/09/18 04:10:48;;;;;;;1.30;1.00;;;;;;;11.81;100.00;100553.91;5004082;28;20218;-75
2021/09/18 04:13:14;;;;;;;0.70;0.70;;;;;;;11.80;100.00;100552.19;5002340;28;20704;-75
2021/09/18 04:15:42;;;;;;;1.10;0.83;;;;;;;11.82;100.00;100544.28;5005339;28;20230;-75
2021/09/18 04:18:08;;;;;;;1.27;0.90;;;;;;;11.85;100.00;100550.28;5001781;28;20216;-76
2021/09/18 04:20:36;;;;;;;2.03;1.43;;;;;;;11.85;100.00;100542.44;5003642;28;20319;-75
2021/09/18 04:23:02;;;;;;;1.67;0.80;;;;;;;11.88;100.00;100550.19;5000400;28;20219;-76
2021/09/18 04:25:28;;;;;;;1.53;0.90;;;;;;;11.89;100.00;100549.28;5010362;28;20212;-76
2021/09/18 04:27:55;;;;;;;1.10;1.00;;;;;;;11.91;100.00;100547.50;5001850;28;20214;-76
2021/09/18 04:30:21;;;;;;;1.03;0.87;;;;;;;11.86;100.00;100546.78;5002488;28;20231;-75
2021/09/18 04:32:49;;;;;;;1.80;0.90;;;;;;;11.92;100.00;100544.00;5000889;28;20216;-76
2021/09/18 04:35:15;;;;;;;0.90;0.90;;;;;;;11.88;100.00;100549.34;5000622;28;20215;-76
2021/09/18 04:37:42;;;;;;;0.90;0.90;;;;;;;11.89;100.00;100551.91;5000967;28;20234;-76
2021/09/18 04:40:09;;;;;;;1.10;1.07;;;;;;;11.84;100.00;100547.75;5002015;28;20203;-75
2021/09/18 04:42:36;;;;;;;1.10;0.90;;;;;;;11.89;100.00;100553.63;5002747;28;20261;-76
2021/09/18 04:45:03;;;;;;;1.47;1.00;;;;;;;11.89;100.00;100553.63;4983981;28;20203;-76
2021/09/18 04:47:29;;;;;;;1.07;0.93;;;;;;;11.91;100.00;100559.72;5004046;28;20726;-76
2021/09/18 04:49:57;;;;;;;1.37;0.90;;;;;;;11.83;100.00;100562.53;5002653;28;20710;-75
2021/09/18 04:52:23;;;;;;;1.10;0.80;;;;;;;11.86;100.00;100557.22;4998486;28;20610;-75
2021/09/18 04:54:49;;;;;;;1.00;0.90;;;;;;;11.83;100.00;100559.94;5000072;28;20233;-76
2021/09/18 04:57:16;;;;;;;1.70;1.00;;;;;;;11.83;100.00;100556.47;5003259;28;20234;-76
2021/09/18 04:59:42;;;;;;;4.33;1.10;;;;;;;11.83;100.00;100553.84;5002017;28;20709;-76
2021/09/18 05:02:09;;;;;;;1.73;0.90;;;;;;;11.83;100.00;100551.25;5000163;28;20234;-75
2021/09/18 05:04:35;;;;;;;0.90;0.90;;;;;;;11.83;100.00;100561.69;5002165;28;20207;-75
2021/09/18 05:07:03;;;;;;;1.00;1.00;;;;;;;11.81;100.00;100563.50;5006202;28;20238;-75
2021/09/18 05:09:29;;;;;;;0.80;0.80;;;;;;;11.79;100.00;100567.94;5001029;28;20208;-75
2021/09/18 05:11:56;;;;;;;1.77;1.00;;;;;;;11.81;100.00;100566.97;5000516;28;20832;-76
2021/09/18 05:14:22;;;;;;;1.83;0.90;;;;;;;11.81;100.00;100564.34;4999436;28;20599;-76
2021/09/18 05:16:48;;;;;;;2.17;0.90;;;;;;;11.87;100.00;100566.78;5000362;28;20235;-76
2021/09/18 05:19:15;;;;;;;1.00;1.00;;;;;;;11.86;100.00;100556.38;4993889;28;20212;-75
2021/09/18 05:21:41;;;;;;;1.43;1.10;;;;;;;11.83;100.00;100565.16;5001729;28;20212;-76
2021/09/18 05:24:09;;;;;;;1.13;1.03;;;;;;;11.86;100.00;100559.84;4999375;28;20214;-75
2021/09/18 05:26:35;;;;;;;1.17;1.07;;;;;;;11.86;100.00;100565.06;5000762;28;20234;-75
2021/09/18 05:29:02;;;;;;;2.47;1.30;;;;;;;11.90;100.00;100566.69;4997627;28;20677;-75
2021/09/18 05:31:28;;;;;;;1.53;1.43;;;;;;;11.90;100.00;100573.66;5000770;28;20590;-75
2021/09/18 05:33:54;;;;;;;1.20;1.10;;;;;;;11.88;100.00;100571.09;4997574;28;20828;-75
2021/09/18 05:36:21;;;;;;;1.43;1.30;;;;;;;11.90;100.00;100577.13;5002278;28;20239;-76
2021/09/18 05:38:48;;;;;;;2.17;1.40;;;;;;;11.96;100.00;100580.47;5003766;28;20215;-75
2021/09/18 05:41:16;;;;;;;2.03;1.30;;;;;;;11.96;100.00;100577.84;5003568;28;20215;-75
2021/09/18 05:43:42;;;;;;;4.10;1.37;;;;;;;11.97;100.00;100590.88;5000315;28;20219;-75
2021/09/18 05:46:09;;;;;;;1.43;1.33;;;;;;;12.02;100.00;100590.72;4984260;28;20223;-75
2021/09/18 05:48:35;;;;;;;1.50;1.40;;;;;;;12.00;100.00;100592.53;5003884;28;20206;-75
2021/09/18 05:51:02;;;;;;;1.70;1.30;;;;;;;12.03;100.00;100588.06;4997607;28;20228;-76
2021/09/18 05:53:28;;;;;;;2.13;1.30;;;;;;;12.10;100.00;100593.91;5002582;28;20737;-75
2021/09/18 05:55:54;;;;;;;1.90;1.60;;;;;;;12.10;100.00;100592.19;4996056;28;20225;-76
2021/09/18 05:58:22;;;;;;;1.40;1.30;;;;;;;12.18;100.00;100594.53;4999344;28;20214;-75
2021/09/18 06:00:48;;;;;;;1.50;1.30;;;;;;;12.18;100.00;100591.06;4995587;28;20200;-75
2021/09/18 06:03:15;;;;;;;1.60;1.30;;;;;;;12.18;100.00;100593.69;5000468;28;20209;-76
2021/09/18 06:05:41;;;;;;;3.60;1.60;;;;;;;12.22;100.00;100590.06;4993678;28;20227;-76
2021/09/18 06:08:07;;;;;;;1.43;1.33;;;;;;;12.23;100.00;100595.25;4999565;28;20197;-75
2021/09/18 06:10:34;;;;;;;1.63;1.30;;;;;;;12.23;100.00;100595.25;4995693;28;20602;-76
2021/09/18 06:13:00;;;;;;;2.37;1.20;;;;;;;12.28;100.00;100587.25;4999648;28;20211;-75
2021/09/18 06:15:28;;;;;;;1.30;1.10;;;;;;;12.27;100.00;100583.75;4995482;28;20291;-75
2021/09/18 06:17:54;;;;;;;2.27;1.30;;;;;;;12.29;100.00;100586.34;4997904;28;20210;-76
2021/09/18 06:20:20;;;;;;;1.37;1.27;;;;;;;12.34;100.00;100594.03;4997238;28;20207;-75
2021/09/18 06:22:47;;;;;;;1.70;1.30;;;;;;;12.35;100.00;100595.72;5000992;28;20242;-75
2021/09/18 06:25:13;;;;;;;1.60;1.40;;;;;;;12.36;100.00;100592.22;4999378;28;20215;-76
2021/09/18 06:27:40;;;;;;;1.60;1.50;;;;;;;12.40;100.00;100599.03;5002500;28;20249;-75
2021/09/18 06:30:07;;;;;;;1.77;1.53;;;;;;;12.45;100.00;100599.72;4995953;28;20209;-75
2021/09/18 06:32:35;;;;;;;2.97;1.30;;;;;;;12.42;100.00;100597.25;4998975;28;20213;-76
2021/09/18 06:35:02;;;;;;;1.60;1.50;;;;;;;12.47;100.00;100597.91;4998277;28;20287;-76
2021/09/18 06:37:29;;;;;;;2.47;1.73;;;;;;;12.51;100.00;100607.38;4999182;28;20985;-75
2021/09/18 06:39:55;;;;;;;2.37;1.50;;;;;;;12.54;100.00;100595.94;4997728;28;20209;-75
2021/09/18 06:42:22;;;;;;;2.33;1.60;;;;;;;12.54;100.00;100593.34;4996767;28;20684;-75
2021/09/18 06:44:48;;;;;;;2.00;1.40;;;;;;;12.55;100.00;100595.91;4997594;28;20208;-75
2021/09/18 06:47:14;;;;;;;1.40;1.27;;;;;;;12.57;100.00;100599.31;4992486;28;20284;-75
2021/09/18 06:49:42;;;;;;;2.33;1.50;;;;;;;12.60;100.00;100596.59;5000768;28;20295;-76
2021/09/18 06:52:08;;;;;;;2.70;1.47;;;;;;;12.63;100.00;100601.72;5000943;28;20225;-75
2021/09/18 06:54:35;;;;;;;1.90;1.40;;;;;;;12.67;100.00;100608.53;4998254;28;20212;-75
2021/09/18 06:57:01;;;;;;;1.50;1.40;;;;;;;12.70;100.00;100599.75;5002099;28;20610;-75
2021/09/18 06:59:27;;;;;;;1.40;1.30;;;;;;;12.71;100.00;100608.44;5004019;28;20552;-75
2021/09/18 07:01:54;;;;;;;1.93;1.50;;;;;;;12.72;100.00;100608.41;5001640;28;20204;-75
2021/09/18 07:04:20;;;;;;;1.87;1.60;;;;;;;12.75;100.00;100604.81;5002968;28;20213;-76
2021/09/18 07:06:48;;;;;;;2.10;1.30;;;;;;;12.67;100.00;100605.09;5003671;28;20224;-76
2021/09/18 07:09:14;;;;;;;1.80;1.50;;;;;;;12.73;100.00;100607.47;4985573;28;20212;-76
2021/09/18 07:11:40;;;;;;;1.53;1.27;;;;;;;12.78;100.00;100605.56;5005481;28;20232;-76
2021/09/18 07:14:07;;;;;;;1.43;1.33;;;;;;;12.76;100.00;100609.13;5006233;28;20219;-75
2021/09/18 07:16:34;;;;;;;2.63;1.63;;;;;;;12.74;100.00;100608.34;5005299;28;20870;-76
2021/09/18 07:19:00;;;;;;;2.13;1.33;;;;;;;12.80;100.00;100608.97;5002938;28;20782;-75
2021/09/18 07:21:26;;;;;;;1.73;1.27;;;;;;;12.78;100.00;100612.56;5005390;28;20255;-76
2021/09/18 07:23:54;;;;;;;1.87;1.50;;;;;;;12.84;100.00;100610.56;5004341;28;20204;-75
2021/09/18 07:26:21;;;;;;;3.27;1.40;;;;;;;12.84;100.00;100612.31;5007121;28;20319;-75
2021/09/18 07:28:47;;;;;;;1.63;1.50;;;;;;;12.87;100.00;100610.47;5001952;28;20594;-76
2021/09/18 07:31:13;;;;;;;1.40;1.20;;;;;;;12.93;100.00;100611.13;5007065;28;20259;-76
2021/09/18 07:33:40;;;;;;;1.40;1.30;;;;;;;12.95;100.00;100614.56;4999555;28;20216;-76
2021/09/18 07:36:06;;;;;;;1.40;1.10;;;;;;;13.00;100.00;100615.28;5002060;28;20330;-76
2021/09/18 07:38:33;;;;;;;1.50;1.40;;;;;;;13.04;100.00;100609.00;5001601;28;20240;-75
2021/09/18 07:41:00;;;;;;;2.10;1.50;;;;;;;13.07;100.00;100617.59;5005627;28;20197;-75
2021/09/18 07:43:27;;;;;;;2.20;1.30;;;;;;;13.11;100.00;100620.09;5002832;28;20204;-76
2021/09/18 07:45:53;;;;;;;1.77;1.40;;;;;;;13.13;100.00;100618.28;4995765;28;20233;-76
2021/09/18 07:48:20;;;;;;;1.87;1.40;;;;;;;13.08;98.76;100621.91;5002476;28;20706;-76
2021/09/18 07:50:46;;;;;;;3.47;1.30;;;;;;;13.13;99.31;100618.28;4995954;28;20315;-76
2021/09/18 07:53:12;;;;;;;1.60;1.50;;;;;;;13.17;100.00;100625.94;4998067;28;20204;-75
2021/09/18 07:55:39;;;;;;;2.00;1.80;;;;;;;13.13;100.00;100632.22;5002137;28;20219;-76
2021/09/18 07:58:06;;;;;;;1.73;1.47;;;;;;;13.14;99.92;100628.69;5002277;28;20885;-75
2021/09/18 08:00:33;;;;;;;2.90;1.50;;;;;;;13.18;99.94;100626.81;5002157;28;20215;-76
2021/09/18 08:03:00;;;;;;;1.63;1.53;;;;;;;13.19;99.18;100631.13;5001179;28;20211;-75
2021/09/18 08:05:26;;;;;;;1.50;1.40;;;;;;;13.22;99.59;100613.53;5003477;28;20212;-75
2021/09/18 08:07:52;;;;;;;1.60;1.50;;;;;;;13.23;98.95;100625.72;5001971;28;20216;-75
2021/09/18 08:10:19;;;;;;;2.17;1.60;;;;;;;13.27;100.00;100622.06;5002692;28;20219;-75
2021/09/18 08:12:48;;;;;;;1.70;1.60;;;;;;;13.36;99.93;100617.44;5001470;28;20224;-77
2021/09/18 08:15:16;;;;;;;1.70;1.60;;;;;;;13.46;99.32;100620.59;5001752;28;20262;-76
2021/09/18 08:17:44;;;;;;;3.47;1.80;;;;;;;13.55;99.51;100630.72;5008542;28;20225;-76
2021/09/18 08:20:11;;;;;;;1.67;1.50;;;;;;;13.53;99.05;100633.38;5002870;28;20217;-75
2021/09/18 08:22:38;;;;;;;3.23;1.60;;;;;;;13.53;98.97;100636.00;5003556;28;20599;-76
2021/09/18 08:25:06;;;;;;;2.97;1.83;;;;;;;13.47;98.40;100643.22;4999009;28;20221;-76
2021/09/18 08:27:33;;;;;;;3.70;1.67;;;;;;;13.41;98.97;100639.94;5000446;28;20671;-76
2021/09/18 08:29:59;;;;;;;2.27;1.70;;;;;;;13.37;99.08;100647.97;5000028;28;20216;-76
2021/09/18 08:32:27;;;;;;;2.00;1.70;;;;;;;13.48;100.00;100648.41;5002019;28;20253;-76
2021/09/18 08:34:54;;;;;;;2.00;1.80;;;;;;;13.39;98.96;100649.63;4997783;28;20206;-75
2021/09/18 08:37:20;;;;;;;3.77;1.90;;;;;;;13.46;100.00;100649.41;4991782;28;20239;-76
2021/09/18 08:39:47;;;;;;;2.00;1.80;;;;;;;13.51;99.50;100650.94;5004328;28;20575;-76
2021/09/18 08:42:15;;;;;;;4.23;1.97;;;;;;;13.49;100.00;100651.88;5002023;28;20215;-75
2021/09/18 08:44:42;;;;;;;1.80;1.70;;;;;;;13.54;100.00;100649.94;5004843;28;20211;-76
2021/09/18 08:47:11;;;;;;;5.23;2.20;;;;;;;13.49;100.00;100657.13;5000322;28;20220;-75
2021/09/18 08:49:39;;;;;;;2.97;2.20;;;;;;;13.48;100.00;100664.13;4996782;28;20197;-76
2021/09/18 08:52:06;;;;;;;2.90;2.40;;;;;;;13.46;100.00;100665.97;5001987;28;20556;-75
2021/09/18 08:54:32;;;;;;;2.37;2.10;;;;;;;13.54;100.00;100661.25;5004999;28;20282;-76
2021/09/18 08:56:59;;;;;;;3.27;2.30;;;;;;;13.54;100.00;100658.63;4997794;28;20226;-75
2021/09/18 08:59:25;;;;;;;2.17;1.90;;;;;;;13.53;100.00;100661.34;5002558;28;20221;-75
2021/09/18 09:02:11;;;;;;;2.77;2.00;;;;;;;13.54;100.00;100663.03;5000629;28;20205;-75
2021/09/18 09:04:38;;;;;;;2.40;2.10;;;;;;;13.56;100.00;100659.47;4998197;28;20290;-75
2021/09/18 09:07:05;;;;;;;2.17;1.97;;;;;;;13.63;100.00;100670.53;4995053;28;20230;-76
2021/09/18 09:09:53;;;;;;;3.40;2.00;;;;;;;13.51;100.00;100676.25;4997039;28;20956;-75
2021/09/18 09:12:31;;;;;;;2.50;1.60;;;;;;;13.40;100.00;100668.78;4994670;28;20883;-76
2021/09/18 09:14:58;;;;;;;2.17;1.73;;;;;;;13.41;100.00;100673.13;5001668;28;20209;-75
2021/09/18 09:17:27;;;;;;;1.90;1.70;;;;;;;13.39;100.00;100681.03;5001901;28;20231;-76
2021/09/18 09:19:57;;;;;;;1.80;1.70;;;;;;;13.42;100.00;100669.56;5000017;28;20581;-76
2021/09/18 09:22:42;;;;;;;3.07;1.73;;;;;;;13.42;100.00;100670.47;5002347;28;20567;-76
2021/09/18 09:25:25;;;;;;;2.43;2.00;;;;;;;13.49;100.00;100671.09;4999819;28;20291;-76
2021/09/18 09:27:52;;;;;;;2.33;1.80;;;;;;;13.46;100.00;100671.19;5000932;28;20209;-76
2021/09/18 09:30:26;;;;;;;3.40;1.93;;;;;;;13.46;100.00;100670.34;5000415;28;20730;-75
2021/09/18 09:32:53;;;;;;;1.80;1.63;;;;;;;13.49;100.00;100675.44;4995921;28;20226;-75
2021/09/18 09:35:21;;;;;;;2.27;1.77;;;;;;;13.51;100.00;100673.63;4989737;28;20207;-75
2021/09/18 09:37:52;;;;;;;2.10;1.90;;;;;;;13.57;100.00;100669.00;4998193;28;20263;-76
2021/09/18 09:40:31;;;;;;;1.77;1.67;;;;;;;13.55;100.00;100670.00;5004472;28;20218;-75
2021/09/18 09:42:58;;;;;;;1.93;1.70;;;;;;;13.63;100.00;100671.41;4993952;28;20680;-76
2021/09/18 09:45:24;;;;;;;2.17;1.80;;;;;;;13.57;100.00;100669.00;4999028;28;20594;-76
2021/09/18 09:48:02;;;;;;;3.50;1.60;;;;;;;13.57;100.00;100670.78;4997853;28;20268;-76
2021/09/18 09:50:31;;;;;;;3.80;1.83;;;;;;;13.62;100.00;100681.94;5001453;28;20454;-76
2021/09/18 09:52:58;;;;;;;1.80;1.70;;;;;;;13.70;100.00;100679.91;4995817;28;20227;-76
2021/09/18 09:55:25;;;;;;;3.50;2.10;;;;;;;13.61;100.00;100681.09;4995681;28;20823;-76
2021/09/18 09:57:58;;;;;;;3.93;1.87;;;;;;;13.67;100.00;100681.75;5000950;28;20666;-76
2021/09/18 10:00:36;;;;;;;4.33;2.00;;;;;;;13.66;100.00;100670.44;4999414;28;20213;-76
2021/09/18 10:03:03;;;;;;;2.63;1.80;;;;;;;13.80;100.00;100672.53;4999233;28;20198;-76
2021/09/18 10:05:31;;;;;;;2.60;1.93;;;;;;;13.79;100.00;100676.03;5001647;28;20207;-76
2021/09/18 10:07:59;;;;;;;2.47;2.10;;;;;;;13.83;100.00;100672.41;5000417;28;20208;-76
2021/09/18 10:10:26;;;;;;;3.07;2.20;;;;;;;13.87;100.00;100675.75;4999042;28;20194;-76
2021/09/18 10:12:55;;;;;;;2.40;1.90;;;;;;;13.85;100.00;100673.19;4996908;28;20227;-76
2021/09/18 10:15:25;;;;;;;3.17;2.00;;;;;;;13.98;100.00;100677.06;5001791;28;20211;-76
2021/09/18 10:17:53;;;;;;;4.23;1.73;;;;;;;14.02;100.00;100669.94;4998273;28;20216;-76
2021/09/18 10:23:13;;;;;;;4.27;2.07;;;;;;;14.00;100.00;100676.97;4998883;28;20758;-75
2021/09/18 10:23:17;;;;;;;3.20;1.87;;;;;;;14.03;100.00;100671.63;4997618;28;20219;-76
2021/09/18 10:25:47;;;;;;;3.47;1.70;;;;;;;14.07;100.00;100667.97;4994097;28;20329;-76
2021/09/18 10:28:15;;;;;;;2.27;1.90;;;;;;;14.05;100.00;100668.94;5000985;28;20216;-76
2021/09/18 10:30:44;;;;;;;2.30;1.80;;;;;;;14.16;100.00;100679.88;4997974;28;20211;-76
2021/09/18 10:33:29;;;;;;;1.67;1.50;;;;;;;14.13;100.00;100672.13;5000453;28;20227;-76
2021/09/18 10:35:58;;;;;;;1.93;1.50;;;;;;;14.13;100.00;100669.50;4991364;28;20335;-76
2021/09/18 10:38:28;;;;;;;2.23;1.83;;;;;;;14.17;100.00;100678.94;5000885;28;20220;-76
2021/09/18 10:40:57;;;;;;;3.10;2.17;;;;;;;14.12;100.00;100678.25;5000750;28;20228;-75
2021/09/18 10:43:29;;;;;;;3.13;1.90;;;;;;;14.17;100.00;100671.91;4994989;28;20207;-75
2021/09/18 10:45:57;;;;;;;2.60;2.20;;;;;;;14.19;100.00;100672.72;4998584;28;20251;-75
2021/09/18 10:48:49;;;;;;;2.03;1.83;;;;;;;14.18;100.00;100675.41;5002155;28;20207;-75
2021/09/18 10:51:36;;;;;;;2.37;1.60;;;;;;;14.23;100.00;100686.56;4980927;28;20217;-76
2021/09/18 10:54:05;;;;;;;2.47;1.80;;;;;;;14.28;100.00;100686.38;5000769;28;20843;-76
2021/09/18 10:56:58;;;;;;;2.30;1.60;;;;;;;14.34;100.00;100683.50;4997510;28;20790;-76
2021/09/18 10:59:42;;;;;;;3.73;1.50;;;;;;;14.37;100.00;100684.22;4999182;28;20211;-75
2021/09/18 11:02:44;;;;;;;1.83;1.67;;;;;;;14.41;100.00;100678.88;5006035;28;20198;-75
2021/09/18 11:05:32;;;;;;;2.00;1.50;;;;;;;14.46;100.00;100682.13;4999661;28;20219;-76
2021/09/18 11:07:59;;;;;;;1.60;1.50;;;;;;;14.48;100.00;100685.56;4999758;28;20224;-76
2021/09/18 11:10:52;;;;;;;1.50;1.37;;;;;;;14.53;100.00;100681.81;5001414;28;20682;-75
2021/09/18 11:13:21;;;;;;;2.17;1.70;;;;;;;14.62;100.00;100678.00;4999375;28;20316;-75
2021/09/18 11:15:50;;;;;;;3.70;2.13;;;;;;;14.73;100.00;100678.38;4998764;28;20310;-75
2021/09/18 11:18:18;;;;;;;3.33;1.93;;;;;;;14.96;100.00;100679.16;5001138;28;20692;-76
2021/09/18 11:20:45;;;;;;;3.20;2.50;;;;;;;15.19;100.00;100672.91;4998381;28;20320;-76
2021/09/18 11:23:11;;;;;;;2.80;2.17;;;;;;;15.33;100.00;100672.28;4997923;28;20205;-76